Alder Creek, New York
Current Conditions -  °F | °C
As of 3:53 PM on Tuesday 25 Nov 2014 (Local Time) from KRME Reporting Station
Clear Clear  
Wind Chill: 42°   Ceiling: Unl
Heat Index: 46°   Visibility: 10mi
Dew Point: 28°   Wind: 8mph
Humidity: 50%   Direction: 280°W
Pressure: 29.95"   Gusts: NA
Location:  43.42°N, 75.23°W
Report Text: KRME 252053Z 28007KT 10SM CLR 08/M02 A2995 RMK AO2 SLP144 T00781022 53003
Loading
Personal Weather Stations






























Interactive Weather Map New forecast layout! Learn more

10-Day Weather Forecast

Advertisements
Track Severe Weather on mobile